createdAt,value
2023-05-12T00:00:13.146Z,4.30
2023-05-12T00:02:41.180Z,8.60
2023-05-12T00:05:09.431Z,7.57
2023-05-12T00:07:37.134Z,5.93
2023-05-12T00:10:05.502Z,6.25
2023-05-12T00:12:33.116Z,4.60
2023-05-12T00:15:00.703Z,8.23
2023-05-12T00:17:28.345Z,8.30
2023-05-12T00:19:55.939Z,5.50
2023-05-12T00:22:23.400Z,6.15
2023-05-12T00:24:50.845Z,5.18
2023-05-12T00:27:18.323Z,5.45
2023-05-12T00:29:45.853Z,4.78
2023-05-12T00:32:13.379Z,5.88
2023-05-12T00:34:40.937Z,6.53
2023-05-12T00:37:08.474Z,5.47
2023-05-12T00:39:36.244Z,6.28
2023-05-12T00:42:03.772Z,6.03
2023-05-12T00:44:31.308Z,6.63
2023-05-12T00:46:59.360Z,7.35
2023-05-12T00:49:27.878Z,6.32
2023-05-12T00:51:56.804Z,7.07
2023-05-12T00:54:24.387Z,8.15
2023-05-12T00:56:52.568Z,8.40
2023-05-12T00:59:20.134Z,5.85
2023-05-12T01:01:48.593Z,5.43
2023-05-12T01:04:16.354Z,5.65
2023-05-12T01:06:55.668Z,5.25
2023-05-12T01:09:23.428Z,4.88
2023-05-12T01:11:51.265Z,4.20
2023-05-12T01:14:18.832Z,5.78
2023-05-12T01:16:59.893Z,5.65
2023-05-12T01:19:50.235Z,5.93
2023-05-12T01:22:18.911Z,4.25
2023-05-12T01:24:50.899Z,4.68
2023-05-12T01:27:19.106Z,6.43
2023-05-12T01:29:48.080Z,5.25
2023-05-12T01:32:17.262Z,4.47
2023-05-12T01:34:45.015Z,3.58
2023-05-12T01:37:13.049Z,8.73
2023-05-12T01:39:40.530Z,4.88
2023-05-12T01:42:08.143Z,4.75
2023-05-12T01:44:36.158Z,4.32
2023-05-12T01:47:03.887Z,6.80
2023-05-12T01:49:31.656Z,4.70
2023-05-12T01:51:59.164Z,5.32
2023-05-12T01:54:27.484Z,5.00
2023-05-12T01:56:55.019Z,4.45
2023-05-12T01:59:22.538Z,5.05
2023-05-12T02:01:50.102Z,5.72
2023-05-12T02:04:17.722Z,5.15
2023-05-12T02:06:45.325Z,7.55
2023-05-12T02:09:13.315Z,6.45
2023-05-12T02:11:40.920Z,8.02
2023-05-12T02:14:08.550Z,5.35
2023-05-12T02:16:36.024Z,5.65
2023-05-12T02:19:04.173Z,5.05
2023-05-12T02:21:32.850Z,6.20
2023-05-12T02:24:00.391Z,4.07
2023-05-12T02:26:27.967Z,6.60
2023-05-12T02:28:55.632Z,5.65
2023-05-12T02:31:23.153Z,5.07
2023-05-12T02:33:51.564Z,2.78
2023-05-12T02:36:19.069Z,4.03
2023-05-12T02:38:46.597Z,3.10
2023-05-12T02:41:14.134Z,3.30
2023-05-12T02:43:41.724Z,3.15
2023-05-12T02:46:09.293Z,2.92
2023-05-12T02:48:36.812Z,3.38
2023-05-12T02:51:04.401Z,4.63
2023-05-12T02:53:31.854Z,2.80
2023-05-12T02:55:59.406Z,2.13
2023-05-12T02:58:26.954Z,2.13
2023-05-12T03:01:06.701Z,2.30
2023-05-12T03:03:37.398Z,1.48
2023-05-12T03:06:06.074Z,1.50
2023-05-12T03:08:33.983Z,3.95
2023-05-12T03:11:01.746Z,2.30
2023-05-12T03:13:29.325Z,1.48
2023-05-12T03:16:01.073Z,2.35
2023-05-12T03:18:29.350Z,1.70
2023-05-12T03:20:57.003Z,4.35
2023-05-12T03:23:24.624Z,1.42
2023-05-12T03:25:52.218Z,2.05
2023-05-12T03:28:19.712Z,2.28
2023-05-12T03:30:47.317Z,4.85
2023-05-12T03:33:14.959Z,4.50
2023-05-12T03:35:42.485Z,4.43
2023-05-12T03:38:10.078Z,5.32
2023-05-12T03:40:37.597Z,4.25
2023-05-12T03:43:05.191Z,5.80
2023-05-12T03:45:32.681Z,6.10
2023-05-12T03:48:00.209Z,6.35
2023-05-12T03:50:27.799Z,11.15
2023-05-12T03:52:56.133Z,10.82
2023-05-12T03:55:23.834Z,13.30
2023-05-12T03:57:51.409Z,13.02
2023-05-12T04:00:19.742Z,13.55
2023-05-12T04:02:47.600Z,19.02
2023-05-12T04:05:15.509Z,17.63
2023-05-12T04:07:43.011Z,17.38
2023-05-12T04:10:10.726Z,17.73
2023-05-12T04:12:38.300Z,18.35
2023-05-12T04:15:07.104Z,18.80
2023-05-12T04:17:35.065Z,16.10
2023-05-12T04:20:02.908Z,19.73
2023-05-12T04:22:30.502Z,19.02
2023-05-12T04:24:58.075Z,20.23
2023-05-12T04:27:25.698Z,19.90
2023-05-12T04:29:53.374Z,21.15
2023-05-12T04:32:20.930Z,21.83
2023-05-12T04:34:48.868Z,26.27
2023-05-12T04:37:16.422Z,21.02
2023-05-12T04:39:43.980Z,19.02
2023-05-12T04:42:11.442Z,28.13
2023-05-12T04:44:38.950Z,25.38
2023-05-12T04:47:06.619Z,26.13
2023-05-12T04:49:34.250Z,21.30
2023-05-12T04:52:01.865Z,23.35
2023-05-12T04:54:29.407Z,26.98
2023-05-12T04:56:56.997Z,30.05
2023-05-12T04:59:24.793Z,30.08
2023-05-12T05:01:52.579Z,28.42
2023-05-12T05:04:20.842Z,26.75
2023-05-12T05:06:48.418Z,30.27
2023-05-12T05:09:16.020Z,34.25
2023-05-12T05:11:43.566Z,28.58
2023-05-12T05:14:11.097Z,28.27
2023-05-12T05:16:38.705Z,29.00
2023-05-12T05:19:06.901Z,32.67
2023-05-12T05:21:43.132Z,35.63
2023-05-12T05:24:10.682Z,34.78
2023-05-12T05:26:38.229Z,36.22
2023-05-12T05:29:06.303Z,36.58
2023-05-12T05:31:34.067Z,31.45
2023-05-12T05:34:01.965Z,37.65
2023-05-12T05:36:31.546Z,47.70
2023-05-12T05:38:59.361Z,37.03
2023-05-12T05:41:26.903Z,42.22
2023-05-12T05:43:54.383Z,38.38
2023-05-12T05:46:22.006Z,34.88
2023-05-12T05:48:49.599Z,38.25
2023-05-12T05:51:17.136Z,40.95
2023-05-12T05:53:44.704Z,37.05
2023-05-12T05:56:12.253Z,39.42
2023-05-12T05:58:39.886Z,38.75
2023-05-12T06:01:07.498Z,41.40
2023-05-12T06:03:35.160Z,39.28
2023-05-12T06:06:02.891Z,39.90
2023-05-12T06:08:30.513Z,36.05
2023-05-12T06:10:58.042Z,35.28
2023-05-12T06:13:25.708Z,37.03
2023-05-12T06:15:53.230Z,37.75
2023-05-12T06:18:20.903Z,36.45
2023-05-12T06:20:48.469Z,34.42
2023-05-12T06:23:16.085Z,34.25
2023-05-12T06:25:43.670Z,29.60
2023-05-12T06:28:11.318Z,31.67
2023-05-12T06:30:38.822Z,34.45
2023-05-12T06:33:06.402Z,37.50
2023-05-12T06:35:33.967Z,36.97
2023-05-12T06:38:01.498Z,31.40
2023-05-12T06:40:29.018Z,30.77
2023-05-12T06:42:56.471Z,32.70
2023-05-12T06:45:24.401Z,34.67
2023-05-12T06:47:51.995Z,30.10
2023-05-12T06:50:19.672Z,31.10
2023-05-12T06:52:47.742Z,31.85
2023-05-12T06:55:19.963Z,32.25
2023-05-12T06:57:47.882Z,33.42
2023-05-12T07:00:15.938Z,32.35
2023-05-12T07:02:43.603Z,31.63
2023-05-12T07:05:11.339Z,30.30
2023-05-12T07:07:38.863Z,28.58
2023-05-12T07:10:07.456Z,35.83
2023-05-12T07:12:35.057Z,30.45
2023-05-12T07:15:02.603Z,29.20
2023-05-12T07:17:30.178Z,29.42
2023-05-12T07:19:57.712Z,27.20
2023-05-12T07:22:25.326Z,30.40
2023-05-12T07:24:53.042Z,28.60
2023-05-12T07:27:20.644Z,24.95
2023-05-12T07:29:48.370Z,30.27
2023-05-12T07:32:16.393Z,27.95
2023-05-12T07:34:43.928Z,26.75
2023-05-12T07:37:11.819Z,28.40
2023-05-12T07:39:39.557Z,24.67
2023-05-12T07:42:07.335Z,24.17
2023-05-12T07:44:34.833Z,26.17
2023-05-12T07:47:02.539Z,25.63
2023-05-12T07:49:30.327Z,26.05
2023-05-12T07:51:57.943Z,26.65
2023-05-12T07:54:25.778Z,27.83
2023-05-12T07:56:53.541Z,28.17
2023-05-12T07:59:21.075Z,21.50
2023-05-12T08:01:49.187Z,26.05
2023-05-12T08:04:16.772Z,22.63
2023-05-12T08:06:44.261Z,24.77
2023-05-12T08:09:11.795Z,19.52
2023-05-12T08:11:39.676Z,21.58
2023-05-12T08:14:07.223Z,21.60
2023-05-12T08:16:34.778Z,21.30
2023-05-12T08:19:02.402Z,20.48
2023-05-12T08:21:29.940Z,17.48
2023-05-12T08:23:57.460Z,18.98
2023-05-12T08:26:24.945Z,17.33
2023-05-12T08:28:52.527Z,19.02
2023-05-12T08:31:20.896Z,16.63
2023-05-12T08:33:51.863Z,16.83
2023-05-12T08:36:27.129Z,18.02
2023-05-12T08:38:56.183Z,22.35
2023-05-12T08:41:53.831Z,28.90
2023-05-12T08:44:22.161Z,16.33
2023-05-12T08:46:49.970Z,18.42
2023-05-12T08:49:21.858Z,16.27
2023-05-12T08:51:57.642Z,12.07
2023-05-12T08:54:28.435Z,14.32
2023-05-12T08:59:27.177Z,15.33
2023-05-12T09:01:55.953Z,12.13
2023-05-12T09:04:23.640Z,8.85
2023-05-12T09:06:54.348Z,10.50
2023-05-12T09:09:24.088Z,10.07
2023-05-12T09:11:57.511Z,9.88
2023-05-12T09:14:26.799Z,10.25
2023-05-12T09:17:04.506Z,10.93
2023-05-12T09:19:32.655Z,8.35
2023-05-12T09:22:01.424Z,8.48
2023-05-12T09:24:54.965Z,11.32
2023-05-12T09:27:27.473Z,10.45
2023-05-12T09:29:59.494Z,10.85
2023-05-12T09:32:35.247Z,8.82
2023-05-12T09:35:05.254Z,7.07
2023-05-12T09:37:34.444Z,6.18
2023-05-12T09:40:07.305Z,8.68
2023-05-12T09:42:36.353Z,7.65
2023-05-12T09:45:09.243Z,7.57
2023-05-12T09:47:41.092Z,7.57
2023-05-12T09:50:10.292Z,5.72
2023-05-12T09:52:41.351Z,6.18
2023-05-12T09:55:11.322Z,7.80
2023-05-12T09:57:46.387Z,7.63
2023-05-12T10:00:34.648Z,7.00
2023-05-12T10:03:17.739Z,7.07
2023-05-12T10:05:54.295Z,5.15
2023-05-12T10:08:26.116Z,9.05
2023-05-12T10:10:54.992Z,7.22
2023-05-12T10:13:23.785Z,9.13
2023-05-12T10:15:56.016Z,7.82
2023-05-12T10:18:23.790Z,6.43
2023-05-12T10:20:53.743Z,6.97
2023-05-12T10:23:21.441Z,5.72
2023-05-12T10:25:49.086Z,7.63
2023-05-12T10:28:16.705Z,5.68
2023-05-12T10:30:45.519Z,6.65
2023-05-12T10:33:13.295Z,4.93
2023-05-12T10:35:40.885Z,4.28
2023-05-12T10:38:11.403Z,4.28
2023-05-12T10:41:10.970Z,4.55
2023-05-12T10:43:45.062Z,9.77
2023-05-12T10:46:24.325Z,4.97
2023-05-12T10:49:08.348Z,3.58
2023-05-12T10:51:48.671Z,6.20
2023-05-12T10:54:26.988Z,5.50
2023-05-12T10:57:00.184Z,3.85
2023-05-12T10:59:28.761Z,3.80
2023-05-12T11:02:15.596Z,4.47
2023-05-12T11:05:04.630Z,3.03
2023-05-12T11:07:35.254Z,4.93
2023-05-12T11:10:06.237Z,3.72
2023-05-12T11:12:37.210Z,6.55
2023-05-12T11:15:06.921Z,3.53
2023-05-12T11:17:34.892Z,2.78
2023-05-12T11:20:02.658Z,3.78
2023-05-12T11:22:30.292Z,4.35
2023-05-12T11:24:57.822Z,2.22
2023-05-12T11:27:25.897Z,2.22
2023-05-12T11:30:01.922Z,5.22
2023-05-12T11:32:30.726Z,2.55
2023-05-12T11:35:16.049Z,3.50
2023-05-12T11:37:45.335Z,2.70
2023-05-12T11:40:20.885Z,4.10
2023-05-12T11:42:52.222Z,2.17
2023-05-12T11:45:22.796Z,1.77
2023-05-12T11:47:50.540Z,2.00
2023-05-12T11:50:23.808Z,1.58
2023-05-12T11:52:52.806Z,3.90
2023-05-12T11:55:23.051Z,1.65
2023-05-12T11:57:59.590Z,3.80
2023-05-12T12:00:35.788Z,2.33
2023-05-12T12:03:12.589Z,2.30
2023-05-12T12:05:42.372Z,2.97
2023-05-12T12:08:15.143Z,2.25
2023-05-12T12:10:49.326Z,1.63
2023-05-12T12:13:25.932Z,1.95
2023-05-12T12:15:54.681Z,2.95
2023-05-12T12:18:22.296Z,1.63
2023-05-12T12:20:49.999Z,2.47
2023-05-12T12:23:17.576Z,1.90
2023-05-12T12:25:45.116Z,1.23
2023-05-12T12:28:12.906Z,1.70
2023-05-12T12:30:40.399Z,13.07
2023-05-12T12:33:08.130Z,1.65
2023-05-12T12:35:35.925Z,2.47
2023-05-12T12:38:03.525Z,5.82
2023-05-12T12:40:31.985Z,2.50
2023-05-12T12:42:59.501Z,1.33
2023-05-12T12:45:27.359Z,4.88
2023-05-12T12:47:55.634Z,1.95
2023-05-12T12:50:24.464Z,5.35
2023-05-12T12:52:53.456Z,2.55
2023-05-12T12:55:21.899Z,1.50
2023-05-12T12:57:49.633Z,2.47
2023-05-12T13:00:17.674Z,4.68
2023-05-12T13:02:45.822Z,5.07
2023-05-12T13:05:13.445Z,5.82
2023-05-12T13:07:40.916Z,3.15
2023-05-12T13:10:09.332Z,5.30
2023-05-12T13:12:37.302Z,4.78
2023-05-12T13:15:05.663Z,5.05
2023-05-12T13:17:33.215Z,5.28
2023-05-12T13:20:00.838Z,4.63
2023-05-12T13:22:29.123Z,5.38
2023-05-12T13:24:57.180Z,3.75
2023-05-12T13:27:24.728Z,4.40
2023-05-12T13:29:52.774Z,4.22
2023-05-12T13:32:20.809Z,5.65
2023-05-12T13:34:48.361Z,3.53
2023-05-12T13:37:15.935Z,3.10
2023-05-12T13:39:43.472Z,5.65
2023-05-12T13:42:11.038Z,3.78
2023-05-12T13:44:38.768Z,3.10
2023-05-12T13:47:07.898Z,3.30
2023-05-12T13:49:37.327Z,4.47
2023-05-12T13:52:05.099Z,4.55
2023-05-12T13:54:32.753Z,2.85
2023-05-12T13:57:00.861Z,6.50
2023-05-12T13:59:28.338Z,6.68
2023-05-12T14:01:55.947Z,3.75
2023-05-12T14:04:23.552Z,4.53
2023-05-12T14:06:51.373Z,4.38
2023-05-12T14:09:19.398Z,4.40
2023-05-12T14:11:47.003Z,2.97
2023-05-12T14:14:14.610Z,4.97
2023-05-12T14:16:42.225Z,3.45
2023-05-12T14:19:09.849Z,5.72
2023-05-12T14:21:37.409Z,4.15
2023-05-12T14:24:05.248Z,4.47
2023-05-12T14:26:32.782Z,4.00
2023-05-12T14:29:00.592Z,4.32
2023-05-12T14:31:28.408Z,5.22
2023-05-12T14:33:56.222Z,3.22
2023-05-12T14:36:23.773Z,4.47
2023-05-12T14:38:51.412Z,7.57
2023-05-12T14:41:18.884Z,3.28
2023-05-12T14:43:46.821Z,4.25
2023-05-12T14:46:14.395Z,4.47
2023-05-12T14:48:42.006Z,6.00
2023-05-12T14:51:09.584Z,5.38
2023-05-12T14:53:37.324Z,5.40
2023-05-12T14:56:05.479Z,3.75
2023-05-12T14:58:32.990Z,6.00
2023-05-12T15:01:02.070Z,4.15
2023-05-12T15:03:29.981Z,4.15
2023-05-12T15:06:06.580Z,4.65
2023-05-12T15:08:35.187Z,5.25
2023-05-12T15:11:02.809Z,5.65
2023-05-12T15:13:30.596Z,4.70
2023-05-12T15:15:58.107Z,5.13
2023-05-12T15:18:25.685Z,6.93
2023-05-12T15:20:53.373Z,4.43
2023-05-12T15:23:21.317Z,6.97
2023-05-12T15:25:54.353Z,4.72
2023-05-12T15:28:21.977Z,5.28
2023-05-12T15:30:58.891Z,5.03
2023-05-12T15:33:27.474Z,3.38
2023-05-12T15:35:55.031Z,4.88
2023-05-12T15:38:22.573Z,3.33
2023-05-12T15:40:50.144Z,3.95
2023-05-12T15:43:18.106Z,2.90
2023-05-12T15:45:46.197Z,6.28
2023-05-12T15:48:13.852Z,2.70
2023-05-12T15:50:41.532Z,4.72
2023-05-12T15:53:09.293Z,4.32
2023-05-12T15:55:36.928Z,4.47
2023-05-12T15:58:05.358Z,6.07
2023-05-12T16:00:33.038Z,5.07
2023-05-12T16:03:01.785Z,3.20
2023-05-12T16:05:29.591Z,3.97
2023-05-12T16:07:57.176Z,4.30
2023-05-12T16:10:24.777Z,3.47
2023-05-12T16:12:52.363Z,2.00
2023-05-12T16:15:20.291Z,3.05
2023-05-12T16:17:48.067Z,2.58
2023-05-12T16:20:15.653Z,3.67
2023-05-12T16:22:43.272Z,5.03
2023-05-12T16:25:11.206Z,6.10
2023-05-12T16:27:38.936Z,3.47
2023-05-12T16:30:07.856Z,4.68
2023-05-12T16:32:35.462Z,2.83
2023-05-12T16:35:03.072Z,6.82
2023-05-12T16:37:30.631Z,4.00
2023-05-12T16:39:58.154Z,4.32
2023-05-12T16:42:25.875Z,5.03
2023-05-12T16:44:56.318Z,4.47
2023-05-12T16:47:24.023Z,4.13
2023-05-12T16:49:54.824Z,4.47
2023-05-12T16:52:23.507Z,5.97
2023-05-12T16:54:51.004Z,4.97
2023-05-12T16:57:18.734Z,7.47
2023-05-12T16:59:48.038Z,4.10
2023-05-12T17:02:15.613Z,5.45
2023-05-12T17:04:43.300Z,4.68
2023-05-12T17:07:10.803Z,4.88
2023-05-12T17:09:38.525Z,3.90
2023-05-12T17:12:06.868Z,6.78
2023-05-12T17:14:34.803Z,3.20
2023-05-12T17:17:02.465Z,3.47
2023-05-12T17:19:30.418Z,3.05
2023-05-12T17:21:57.958Z,3.22
2023-05-12T17:24:25.952Z,3.30
2023-05-12T17:26:53.681Z,2.53
2023-05-12T17:29:21.503Z,8.45
2023-05-12T17:31:49.108Z,5.68
2023-05-12T17:34:16.667Z,3.58
2023-05-12T17:36:44.255Z,4.68
2023-05-12T17:39:14.689Z,5.88
2023-05-12T17:41:42.361Z,2.88
2023-05-12T17:44:10.487Z,4.35
2023-05-12T17:46:38.349Z,6.10
2023-05-12T17:49:05.944Z,4.18
2023-05-12T17:51:33.492Z,4.18
2023-05-12T17:54:01.043Z,8.00
2023-05-12T17:56:28.699Z,4.30
2023-05-12T17:58:56.188Z,4.75
2023-05-12T18:01:23.824Z,8.48
2023-05-12T18:03:51.447Z,5.47
2023-05-12T18:06:19.129Z,5.80
2023-05-12T18:08:46.625Z,11.40
2023-05-12T18:11:14.596Z,6.38
2023-05-12T18:13:42.275Z,8.65
2023-05-12T18:16:21.252Z,7.28
2023-05-12T18:18:55.519Z,9.50
2023-05-12T18:21:23.139Z,7.43
2023-05-12T18:23:50.635Z,6.80
2023-05-12T18:26:18.180Z,10.68
2023-05-12T18:28:45.735Z,8.10
2023-05-12T18:31:16.247Z,11.43
2023-05-12T18:33:47.521Z,11.60
2023-05-12T18:36:15.212Z,8.90
2023-05-12T18:38:42.932Z,10.48
2023-05-12T18:41:11.025Z,8.70
2023-05-12T18:43:38.735Z,9.88
2023-05-12T18:46:06.389Z,10.10
2023-05-12T18:48:34.122Z,8.85
2023-05-12T18:51:01.692Z,9.18
2023-05-12T18:53:29.381Z,10.63
2023-05-12T18:55:57.463Z,11.52
2023-05-12T18:58:25.149Z,11.50
2023-05-12T19:00:53.897Z,11.30
2023-05-12T19:03:22.632Z,8.90
2023-05-12T19:05:50.279Z,10.43
2023-05-12T19:08:19.808Z,7.90
2023-05-12T19:10:48.818Z,9.07
2023-05-12T19:13:16.371Z,11.52
2023-05-12T19:15:44.120Z,13.50
2023-05-12T19:18:11.810Z,15.15
2023-05-12T19:20:39.328Z,13.38
2023-05-12T19:23:07.183Z,13.80
2023-05-12T19:25:35.315Z,13.13
2023-05-12T19:28:02.957Z,12.52
2023-05-12T19:30:30.970Z,12.75
2023-05-12T19:33:00.316Z,13.43
2023-05-12T19:35:27.916Z,14.25
2023-05-12T19:37:55.464Z,12.38
2023-05-12T19:40:23.030Z,18.23
2023-05-12T19:42:52.721Z,13.45
2023-05-12T19:45:20.486Z,13.40
2023-05-12T19:47:48.288Z,14.30
2023-05-12T19:50:16.584Z,13.07
2023-05-12T19:52:44.172Z,13.55
2023-05-12T19:55:11.862Z,16.02
2023-05-12T19:57:39.425Z,15.05
2023-05-12T20:00:08.140Z,18.98
2023-05-12T20:02:36.185Z,15.00
2023-05-12T20:05:04.365Z,20.73
2023-05-12T20:07:31.950Z,16.95
2023-05-12T20:10:01.071Z,14.63
2023-05-12T20:12:28.691Z,17.88
2023-05-12T20:14:56.160Z,16.77
2023-05-12T20:17:23.770Z,17.15
2023-05-12T20:19:51.330Z,14.18
2023-05-12T20:22:18.973Z,20.15
2023-05-12T20:24:46.590Z,15.20
2023-05-12T20:27:14.120Z,17.95
2023-05-12T20:29:41.840Z,18.42
2023-05-12T20:32:09.316Z,13.95
2023-05-12T20:34:36.814Z,18.05
2023-05-12T20:37:04.341Z,14.10
2023-05-12T20:39:31.854Z,13.73
2023-05-12T20:42:00.015Z,17.52
2023-05-12T20:44:27.836Z,16.00
2023-05-12T20:46:55.865Z,12.45
2023-05-12T20:49:23.463Z,13.07
2023-05-12T20:51:50.964Z,15.73
2023-05-12T20:54:18.507Z,16.08
2023-05-12T20:56:46.066Z,13.00
2023-05-12T20:59:13.596Z,16.60
2023-05-12T21:01:41.239Z,11.23
2023-05-12T21:04:08.855Z,14.50
2023-05-12T21:06:37.003Z,12.00
2023-05-12T21:09:05.227Z,11.20
2023-05-12T21:11:32.758Z,12.13
2023-05-12T21:14:00.251Z,13.20
2023-05-12T21:16:27.968Z,10.90
2023-05-12T21:18:55.995Z,12.43
2023-05-12T21:21:23.484Z,15.32
2023-05-12T21:23:51.263Z,10.30
2023-05-12T21:26:18.815Z,9.95
2023-05-12T21:28:46.300Z,10.57
2023-05-12T21:31:13.859Z,9.82
2023-05-12T21:33:41.408Z,11.50
2023-05-12T21:36:09.188Z,8.60
2023-05-12T21:38:36.771Z,14.55
2023-05-12T21:41:04.903Z,11.00
2023-05-12T21:43:32.375Z,12.63
2023-05-12T21:46:04.323Z,15.20
2023-05-12T21:48:33.358Z,8.18
2023-05-12T21:51:02.647Z,11.65
2023-05-12T21:53:30.822Z,9.45
2023-05-12T21:55:58.319Z,9.75
2023-05-12T21:58:26.122Z,13.75
2023-05-12T22:00:54.003Z,12.00
2023-05-12T22:03:21.990Z,8.45
2023-05-12T22:05:50.030Z,10.00
2023-05-12T22:08:18.646Z,11.68
2023-05-12T22:10:46.796Z,12.60
2023-05-12T22:13:14.423Z,10.23
2023-05-12T22:15:42.037Z,12.55
2023-05-12T22:18:09.697Z,15.30
2023-05-12T22:20:37.283Z,15.30
2023-05-12T22:23:05.427Z,11.50
2023-05-12T22:25:32.935Z,9.95
2023-05-12T22:28:00.514Z,13.90
2023-05-12T22:30:28.023Z,12.65
2023-05-12T22:32:55.567Z,12.85
2023-05-12T22:35:23.282Z,13.20
2023-05-12T22:37:51.003Z,15.73
2023-05-12T22:40:21.169Z,11.98
2023-05-12T22:42:48.958Z,13.07
2023-05-12T22:45:16.592Z,10.73
2023-05-12T22:47:44.188Z,11.70
2023-05-12T22:50:12.134Z,17.52
2023-05-12T22:52:39.721Z,9.77
2023-05-12T22:55:07.816Z,10.80
2023-05-12T22:57:35.277Z,12.13
2023-05-12T23:00:03.672Z,11.50
2023-05-12T23:02:31.174Z,12.55
2023-05-12T23:04:58.651Z,12.05
2023-05-12T23:07:26.112Z,12.25
2023-05-12T23:09:53.594Z,13.27
2023-05-12T23:12:21.027Z,9.88
2023-05-12T23:14:48.561Z,12.23
2023-05-12T23:17:16.069Z,9.07
2023-05-12T23:19:43.626Z,8.13
2023-05-12T23:22:11.116Z,11.95
2023-05-12T23:24:38.641Z,6.43
2023-05-12T23:27:06.314Z,7.63
2023-05-12T23:29:34.451Z,6.15
2023-05-12T23:32:02.032Z,6.95
2023-05-12T23:34:30.037Z,9.65
2023-05-12T23:36:57.554Z,7.15
2023-05-12T23:39:25.036Z,3.97
2023-05-12T23:41:52.537Z,6.10
2023-05-12T23:44:20.046Z,10.25
2023-05-12T23:46:47.718Z,11.77
2023-05-12T23:49:15.440Z,6.07
2023-05-12T23:51:43.131Z,7.35
2023-05-12T23:54:10.651Z,6.47
2023-05-12T23:56:38.159Z,7.53
2023-05-12T23:59:05.736Z,7.40
